Time;durP1;ratioP1;P1;durP2;ratioP2;P2;SDS_P1;SDS_P2;PMS_P1;PMS_P2;Temp;Humidity;BMP_temperature;BMP_pressure;BME280_temperature;BME280_humidity;BME280_pressure;Samples;Min_cycle;Max_cycle;Signal;HPM_P1;HPM_P2
2023/12/31 00:01:17;;;;;;;;;3.00;3.00;;;;;;;;5067053;28;9391;-82
2023/12/31 00:03:45;;;;;;;;;2.00;2.00;;;;;;;;5072301;28;9637;-82
2023/12/31 00:06:12;;;;;;;;;5.50;3.00;;;;;;;;5073252;28;10268;-84
2023/12/31 00:08:39;;;;;;;;;3.00;3.00;;;;;;;;5070995;28;9462;-81
2023/12/31 00:11:06;;;;;;;;;3.00;3.00;;;;;;;;5071583;28;9531;-81
2023/12/31 00:13:34;;;;;;;;;3.00;3.00;;;;;;;;5069486;28;9833;-80
2023/12/31 00:16:02;;;;;;;;;3.00;3.00;;;;;;;;5070929;28;9757;-80
2023/12/31 00:18:32;;;;;;;;;3.00;3.00;;;;;;;;5069853;28;9610;-81
2023/12/31 00:20:59;;;;;;;;;3.00;3.00;;;;;;;;5070454;28;9638;-82
2023/12/31 00:23:27;;;;;;;;;2.00;2.00;;;;;;;;5068252;28;9490;-82
2023/12/31 00:25:54;;;;;;;;;2.00;2.00;;;;;;;;5069291;28;9594;-83
2023/12/31 00:28:21;;;;;;;;;4.50;4.50;;;;;;;;5067328;28;9580;-80
2023/12/31 00:30:48;;;;;;;;;3.50;2.50;;;;;;;;5068846;28;9531;-81
2023/12/31 00:33:17;;;;;;;;;4.00;4.00;;;;;;;;5070010;28;9575;-82
2023/12/31 00:35:44;;;;;;;;;2.00;2.00;;;;;;;;5070916;28;9552;-80
2023/12/31 00:38:11;;;;;;;;;3.75;3.75;;;;;;;;5071064;28;9483;-81
2023/12/31 00:40:39;;;;;;;;;2.00;2.00;;;;;;;;5073519;28;9692;-81
2023/12/31 00:43:06;;;;;;;;;2.00;2.00;;;;;;;;5072080;28;9538;-79
2023/12/31 00:45:33;;;;;;;;;3.50;3.50;;;;;;;;5073274;28;9546;-82
2023/12/31 00:48:03;;;;;;;;;3.00;3.00;;;;;;;;5065014;28;9524;-81
2023/12/31 00:50:34;;;;;;;;;3.75;3.75;;;;;;;;5066271;28;9541;-81
2023/12/31 00:53:02;;;;;;;;;4.25;4.00;;;;;;;;5066172;28;9621;-81
2023/12/31 00:55:31;;;;;;;;;3.25;3.25;;;;;;;;5058150;28;9533;-82
2023/12/31 00:58:01;;;;;;;;;4.00;3.00;;;;;;;;5066747;28;9660;-80
2023/12/31 01:00:28;;;;;;;;;4.00;4.00;;;;;;;;5063754;28;9526;-81
2023/12/31 01:02:56;;;;;;;;;4.00;4.00;;;;;;;;5064269;28;9536;-83
2023/12/31 01:05:23;;;;;;;;;4.00;3.00;;;;;;;;5074244;28;9538;-84
2023/12/31 01:07:52;;;;;;;;;4.00;4.00;;;;;;;;5063391;28;9460;-81
2023/12/31 01:10:19;;;;;;;;;4.00;4.00;;;;;;;;5055169;28;9505;-82
2023/12/31 01:12:46;;;;;;;;;3.75;3.75;;;;;;;;5066635;28;9469;-83
2023/12/31 01:15:14;;;;;;;;;4.00;4.00;;;;;;;;5065324;28;9454;-82
2023/12/31 01:17:41;;;;;;;;;4.00;4.00;;;;;;;;5068972;28;10345;-84
2023/12/31 01:20:09;;;;;;;;;4.25;4.00;;;;;;;;5069671;28;9758;-82
2023/12/31 01:22:36;;;;;;;;;3.50;3.50;;;;;;;;5057198;28;9481;-83
2023/12/31 01:25:06;;;;;;;;;3.00;2.00;;;;;;;;5056390;28;9584;-82
2023/12/31 01:27:33;;;;;;;;;3.25;2.50;;;;;;;;5061805;28;9556;-83
2023/12/31 01:30:02;;;;;;;;;3.75;3.75;;;;;;;;5070088;28;10173;-83
2023/12/31 01:32:29;;;;;;;;;3.00;3.00;;;;;;;;5071865;28;9636;-84
2023/12/31 01:34:58;;;;;;;;;1.33;1.33;;;;;;;;5068621;28;9465;-83
2023/12/31 01:37:26;;;;;;;;;3.00;3.00;;;;;;;;5069243;28;9440;-84
2023/12/31 01:39:53;;;;;;;;;3.75;3.75;;;;;;;;5067270;28;10359;-83
2023/12/31 01:42:22;;;;;;;;;4.00;4.00;;;;;;;;5067535;28;9572;-84
2023/12/31 01:44:49;;;;;;;;;3.25;3.25;;;;;;;;5065604;28;9420;-85
2023/12/31 01:47:17;;;;;;;;;3.75;3.75;;;;;;;;5069021;28;9783;-85
2023/12/31 01:49:45;;;;;;;;;4.25;4.25;;;;;;;;5068703;28;9673;-84
2023/12/31 01:52:12;;;;;;;;;7.00;5.50;;;;;;;;5068783;28;9701;-81
2023/12/31 01:54:39;;;;;;;;;4.00;4.00;;;;;;;;5068576;28;9800;-84
2023/12/31 01:57:07;;;;;;;;;4.00;4.00;;;;;;;;5066805;28;9623;-85
2023/12/31 01:59:36;;;;;;;;;4.00;4.00;;;;;;;;5068367;28;9722;-84
2023/12/31 02:02:04;;;;;;;;;3.00;3.00;;;;;;;;5070349;28;9648;-84
2023/12/31 02:04:35;;;;;;;;;4.00;3.75;;;;;;;;5071355;28;9704;-85
2023/12/31 02:07:02;;;;;;;;;4.50;4.50;;;;;;;;5073289;28;9705;-82
2023/12/31 02:09:31;;;;;;;;;6.00;6.00;;;;;;;;5073423;28;9693;-83
2023/12/31 02:12:02;;;;;;;;;6.50;6.50;;;;;;;;5070981;28;9618;-83
2023/12/31 02:14:31;;;;;;;;;9.50;9.50;;;;;;;;5073247;28;9787;-83
2023/12/31 02:17:01;;;;;;;;;10.25;9.00;;;;;;;;5072703;28;10009;-84
2023/12/31 02:19:29;;;;;;;;;11.50;11.50;;;;;;;;5073519;28;10009;-85
2023/12/31 02:21:58;;;;;;;;;10.75;10.75;;;;;;;;5073299;28;10192;-83
2023/12/31 02:24:32;;;;;;;;;10.75;10.75;;;;;;;;5073654;28;10063;-81
2023/12/31 02:27:03;;;;;;;;;12.50;12.50;;;;;;;;5075037;28;9951;-81
2023/12/31 02:29:33;;;;;;;;;13.50;13.50;;;;;;;;5080687;28;10110;-80
2023/12/31 02:32:03;;;;;;;;;13.50;13.50;;;;;;;;5089796;28;10046;-81
2023/12/31 02:34:33;;;;;;;;;15.75;15.00;;;;;;;;5082314;28;10138;-79
2023/12/31 02:37:03;;;;;;;;;12.50;11.00;;;;;;;;5070045;28;9945;-83
2023/12/31 02:39:33;;;;;;;;;10.25;10.25;;;;;;;;5067996;28;10014;-84
2023/12/31 02:42:04;;;;;;;;;11.25;11.25;;;;;;;;5075632;28;9878;-79
2023/12/31 02:44:32;;;;;;;;;13.00;13.00;;;;;;;;5079633;28;10046;-82
2023/12/31 02:47:02;;;;;;;;;12.00;12.00;;;;;;;;5079004;28;9926;-84
2023/12/31 02:49:29;;;;;;;;;10.75;10.75;;;;;;;;5080270;28;10011;-81
2023/12/31 02:51:56;;;;;;;;;11.25;11.25;;;;;;;;5073212;28;10128;-85
2023/12/31 02:54:23;;;;;;;;;10.75;10.75;;;;;;;;5066701;28;9911;-83
2023/12/31 02:56:51;;;;;;;;;10.50;8.00;;;;;;;;5074923;28;9957;-83
2023/12/31 02:59:19;;;;;;;;;6.75;6.75;;;;;;;;5074328;28;9804;-84
2023/12/31 03:01:47;;;;;;;;;7.25;7.25;;;;;;;;5064680;28;9760;-84
2023/12/31 03:04:14;;;;;;;;;8.00;8.00;;;;;;;;5062722;28;10019;-81
2023/12/31 03:06:47;;;;;;;;;8.25;8.25;;;;;;;;5058202;28;9853;-83
2023/12/31 03:09:15;;;;;;;;;6.00;6.00;;;;;;;;5069975;28;9916;-84
2023/12/31 03:11:43;;;;;;;;;10.75;6.75;;;;;;;;5064672;28;9840;-83
2023/12/31 03:14:10;;;;;;;;;6.50;6.50;;;;;;;;5071597;28;9943;-82
2023/12/31 03:16:43;;;;;;;;;7.25;7.25;;;;;;;;5072846;28;10142;-82
2023/12/31 03:19:10;;;;;;;;;6.25;6.25;;;;;;;;5067803;28;9845;-79
2023/12/31 03:21:37;;;;;;;;;9.25;8.50;;;;;;;;5069430;28;9980;-80
2023/12/31 03:24:05;;;;;;;;;5.25;5.25;;;;;;;;5062104;28;9861;-80
2023/12/31 03:26:32;;;;;;;;;7.50;7.50;;;;;;;;5059857;28;9897;-81
2023/12/31 03:29:06;;;;;;;;;14.00;11.00;;;;;;;;5071318;28;10717;-81
2023/12/31 03:31:33;;;;;;;;;8.50;8.50;;;;;;;;5070064;28;10028;-80
2023/12/31 03:34:06;;;;;;;;;13.75;13.75;;;;;;;;5071476;28;10039;-81
2023/12/31 03:36:34;;;;;;;;;15.00;15.00;;;;;;;;5069461;28;10250;-80
2023/12/31 03:39:04;;;;;;;;;12.00;12.00;;;;;;;;5071152;28;10184;-80
2023/12/31 03:41:34;;;;;;;;;13.25;13.25;;;;;;;;5071301;28;10269;-80
2023/12/31 03:44:01;;;;;;;;;12.75;12.75;;;;;;;;5071101;28;10212;-80
2023/12/31 03:46:28;;;;;;;;;14.25;14.25;;;;;;;;5070207;28;10225;-82
2023/12/31 03:49:00;;;;;;;;;8.75;8.75;;;;;;;;5070592;28;10044;-80
2023/12/31 03:51:31;;;;;;;;;8.00;8.00;;;;;;;;5069095;28;9863;-81
2023/12/31 03:53:58;;;;;;;;;6.00;6.00;;;;;;;;5070605;28;9772;-80
2023/12/31 03:56:25;;;;;;;;;7.00;7.00;;;;;;;;5067256;28;9804;-79
2023/12/31 03:58:54;;;;;;;;;6.25;6.25;;;;;;;;5061308;28;9750;-80
2023/12/31 04:01:21;;;;;;;;;7.75;6.75;;;;;;;;5060652;28;9634;-79
2023/12/31 04:03:48;;;;;;;;;5.75;5.75;;;;;;;;5066392;28;9693;-80
2023/12/31 04:06:15;;;;;;;;;6.50;4.75;;;;;;;;5057580;28;9768;-78
2023/12/31 04:08:44;;;;;;;;;3.75;3.75;;;;;;;;5070975;28;9889;-81
2023/12/31 04:11:12;;;;;;;;;5.75;4.75;;;;;;;;5068993;28;9844;-80
2023/12/31 04:13:42;;;;;;;;;4.25;4.25;;;;;;;;5065192;28;9704;-81
2023/12/31 04:16:09;;;;;;;;;5.75;5.75;;;;;;;;5066881;28;9703;-80
2023/12/31 04:18:36;;;;;;;;;6.50;5.50;;;;;;;;5072157;28;9996;-80
2023/12/31 04:21:04;;;;;;;;;7.75;6.25;;;;;;;;5073685;28;9829;-80
2023/12/31 04:23:31;;;;;;;;;7.25;7.25;;;;;;;;5063119;28;9869;-80
2023/12/31 04:26:00;;;;;;;;;8.50;8.50;;;;;;;;5075060;28;9889;-80
2023/12/31 04:28:27;;;;;;;;;9.50;9.50;;;;;;;;5056624;28;10852;-79
2023/12/31 04:30:55;;;;;;;;;10.00;10.00;;;;;;;;5056191;28;10065;-79
2023/12/31 04:33:22;;;;;;;;;9.00;9.00;;;;;;;;5071119;28;10041;-79
2023/12/31 04:35:49;;;;;;;;;8.00;8.00;;;;;;;;5076327;28;10122;-80
2023/12/31 04:38:16;;;;;;;;;5.50;5.50;;;;;;;;5075760;28;9874;-80
2023/12/31 04:40:44;;;;;;;;;6.50;6.50;;;;;;;;5071845;28;10766;-81
2023/12/31 04:43:13;;;;;;;;;6.00;6.00;;;;;;;;5072146;28;9773;-80
2023/12/31 04:45:43;;;;;;;;;7.00;7.00;;;;;;;;5068146;28;9975;-81
2023/12/31 04:48:10;;;;;;;;;4.50;4.50;;;;;;;;5070345;28;10033;-79
2023/12/31 04:50:38;;;;;;;;;4.00;4.00;;;;;;;;5065448;28;9870;-81
2023/12/31 04:53:07;;;;;;;;;6.25;6.25;;;;;;;;5068364;28;9981;-79
2023/12/31 04:55:35;;;;;;;;;5.00;5.00;;;;;;;;5068961;28;9917;-79
2023/12/31 04:58:02;;;;;;;;;5.50;5.50;;;;;;;;5062387;28;10738;-80
2023/12/31 05:00:31;;;;;;;;;3.50;3.50;;;;;;;;5059843;28;9783;-79
2023/12/31 05:03:00;;;;;;;;;2.33;2.33;;;;;;;;5063611;28;9849;-80
2023/12/31 05:05:28;;;;;;;;;4.00;2.33;;;;;;;;5055486;28;9643;-81
2023/12/31 05:07:55;;;;;;;;;3.00;3.00;;;;;;;;5068257;28;9549;-80
2023/12/31 05:10:22;;;;;;;;;3.00;3.00;;;;;;;;5071941;28;9761;-79
2023/12/31 05:12:49;;;;;;;;;3.00;3.00;;;;;;;;5069348;28;9653;-79
2023/12/31 05:15:16;;;;;;;;;2.00;2.00;;;;;;;;5069047;28;9543;-79
2023/12/31 05:17:45;;;;;;;;;2.33;2.33;;;;;;;;5068011;28;9621;-82
2023/12/31 05:20:12;;;;;;;;;3.00;2.00;;;;;;;;5067192;28;10215;-80
2023/12/31 05:22:40;;;;;;;;;1.00;1.00;;;;;;;;5066830;28;9069;-82
2023/12/31 05:25:08;;;;;;;;;1.00;1.00;;;;;;;;5068921;28;9240;-79
2023/12/31 05:27:35;;;;;;;;;2.00;0.00;;;;;;;;5067507;28;9182;-79
2023/12/31 05:30:02;;;;;;;;;0.67;0.67;;;;;;;;5068538;28;9244;-79
2023/12/31 05:32:32;;;;;;;;;0.00;0.00;;;;;;;;5070054;28;9377;-83
2023/12/31 05:35:05;;;;;;;;;0.00;0.00;;;;;;;;5070072;28;9332;-80
2023/12/31 05:37:32;;;;;;;;;0.67;0.67;;;;;;;;5068768;28;9377;-81
2023/12/31 05:40:04;;;;;;;;;0.00;0.00;;;;;;;;5068227;28;9301;-80
2023/12/31 05:42:34;;;;;;;;;0.00;0.00;;;;;;;;5067868;28;9255;-83
2023/12/31 05:45:03;;;;;;;;;1.00;1.00;;;;;;;;5066372;28;9301;-82
2023/12/31 05:47:30;;;;;;;;;0.00;0.00;;;;;;;;5066910;28;9189;-79
2023/12/31 05:49:57;;;;;;;;;0.00;0.00;;;;;;;;5064696;28;9252;-81
2023/12/31 05:52:26;;;;;;;;;0.00;0.00;;;;;;;;5068449;28;9253;-79
2023/12/31 05:54:53;;;;;;;;;0.00;0.00;;;;;;;;5066600;28;10065;-81
2023/12/31 05:57:20;;;;;;;;;0.00;0.00;;;;;;;;5068808;28;9265;-80
2023/12/31 05:59:48;;;;;;;;;0.00;0.00;;;;;;;;5068045;28;9202;-79
2023/12/31 06:02:15;;;;;;;;;0.00;0.00;;;;;;;;5068814;28;9199;-80
2023/12/31 06:04:47;;;;;;;;;0.00;0.00;;;;;;;;5066752;28;9265;-80
2023/12/31 06:07:14;;;;;;;;;0.00;0.00;;;;;;;;5069368;28;9250;-81
2023/12/31 06:09:43;;;;;;;;;0.00;0.00;;;;;;;;5071102;28;9632;-81
2023/12/31 06:12:11;;;;;;;;;0.00;0.00;;;;;;;;5073193;28;9404;-82
2023/12/31 06:14:39;;;;;;;;;0.00;0.00;;;;;;;;5070604;28;9617;-81
2023/12/31 06:17:06;;;;;;;;;1.00;0.00;;;;;;;;5067865;28;9404;-82
2023/12/31 06:19:34;;;;;;;;;0.00;0.00;;;;;;;;5071031;28;9588;-80
2023/12/31 06:22:04;;;;;;;;;0.00;0.00;;;;;;;;5063406;28;9400;-81
2023/12/31 06:24:32;;;;;;;;;1.00;0.00;;;;;;;;5066746;28;9419;-81
2023/12/31 06:27:01;;;;;;;;;0.00;0.00;;;;;;;;5079759;28;9405;-81
2023/12/31 06:29:31;;;;;;;;;0.00;0.00;;;;;;;;5061230;28;10275;-81
2023/12/31 06:31:59;;;;;;;;;0.75;0.00;;;;;;;;5069861;28;9358;-81
2023/12/31 06:34:32;;;;;;;;;0.00;0.00;;;;;;;;5071111;28;10183;-83
2023/12/31 06:37:01;;;;;;;;;0.00;0.00;;;;;;;;5058769;28;9542;-82
2023/12/31 06:39:29;;;;;;;;;0.00;0.00;;;;;;;;5068558;28;10278;-81
2023/12/31 06:41:58;;;;;;;;;0.00;0.00;;;;;;;;5067356;28;9384;-80
2023/12/31 06:44:27;;;;;;;;;0.00;0.00;;;;;;;;5057834;28;9484;-81
2023/12/31 06:46:54;;;;;;;;;0.00;0.00;;;;;;;;5054959;28;9523;-85
2023/12/31 06:49:21;;;;;;;;;0.00;0.00;;;;;;;;5060276;28;9554;-81
2023/12/31 06:51:49;;;;;;;;;1.50;0.00;;;;;;;;5056883;28;9521;-79
2023/12/31 06:54:16;;;;;;;;;1.00;0.00;;;;;;;;5066178;28;10366;-82
2023/12/31 06:56:43;;;;;;;;;0.00;0.00;;;;;;;;5073685;28;9590;-73
2023/12/31 06:59:10;;;;;;;;;0.00;0.00;;;;;;;;5067173;28;9645;-73
2023/12/31 07:01:39;;;;;;;;;0.00;0.00;;;;;;;;5070290;28;9340;-73
2023/12/31 07:04:06;;;;;;;;;0.00;0.00;;;;;;;;5059732;28;10378;-73
2023/12/31 07:06:33;;;;;;;;;0.00;0.00;;;;;;;;5057607;28;10405;-75
2023/12/31 07:09:03;;;;;;;;;1.25;0.00;;;;;;;;5070741;28;9502;-74
2023/12/31 07:11:33;;;;;;;;;0.00;0.00;;;;;;;;5070725;28;9476;-76
2023/12/31 07:14:03;;;;;;;;;0.00;0.00;;;;;;;;5070615;28;9485;-74
2023/12/31 07:16:32;;;;;;;;;1.00;0.00;;;;;;;;5071327;28;9480;-76
2023/12/31 07:19:03;;;;;;;;;0.00;0.00;;;;;;;;5070722;28;9667;-76
2023/12/31 07:21:31;;;;;;;;;0.00;0.00;;;;;;;;5072325;28;9403;-75
2023/12/31 07:24:00;;;;;;;;;0.00;0.00;;;;;;;;5071955;28;9422;-75
2023/12/31 07:26:28;;;;;;;;;0.00;0.00;;;;;;;;5072796;28;9500;-76
2023/12/31 07:28:56;;;;;;;;;0.00;0.00;;;;;;;;5071510;28;9418;-76
2023/12/31 07:31:24;;;;;;;;;0.00;0.00;;;;;;;;5070289;28;9510;-75
2023/12/31 07:33:51;;;;;;;;;0.00;0.00;;;;;;;;5069681;28;9403;-75
2023/12/31 07:36:19;;;;;;;;;0.00;0.00;;;;;;;;5070744;28;9465;-75
2023/12/31 07:38:49;;;;;;;;;0.00;0.00;;;;;;;;5069907;28;9477;-76
2023/12/31 07:41:16;;;;;;;;;0.00;0.00;;;;;;;;5070586;28;10582;-76
2023/12/31 07:43:43;;;;;;;;;0.00;0.00;;;;;;;;5068260;28;9509;-75
2023/12/31 07:46:13;;;;;;;;;0.00;0.00;;;;;;;;5070299;28;9630;-75
2023/12/31 07:48:40;;;;;;;;;0.00;0.00;;;;;;;;5070584;28;9407;-76
2023/12/31 07:51:09;;;;;;;;;0.00;0.00;;;;;;;;5069395;28;9610;-75
2023/12/31 07:53:38;;;;;;;;;0.00;0.00;;;;;;;;5070386;28;9400;-77
2023/12/31 07:56:06;;;;;;;;;0.00;0.00;;;;;;;;5071336;28;9382;-77
2023/12/31 07:58:34;;;;;;;;;0.00;0.00;;;;;;;;5073199;28;9487;-75
2023/12/31 08:01:04;;;;;;;;;0.00;0.00;;;;;;;;5058402;28;9500;-78
2023/12/31 08:03:32;;;;;;;;;3.00;0.00;;;;;;;;5064655;28;9541;-73
2023/12/31 08:06:02;;;;;;;;;1.00;0.00;;;;;;;;5065096;28;9590;-73
2023/12/31 08:08:31;;;;;;;;;0.00;0.00;;;;;;;;5062491;28;9479;-76
2023/12/31 08:11:04;;;;;;;;;0.00;0.00;;;;;;;;5057558;28;9564;-75
2023/12/31 08:13:31;;;;;;;;;0.00;0.00;;;;;;;;5062563;28;9552;-76
2023/12/31 08:16:00;;;;;;;;;0.00;0.00;;;;;;;;5065394;28;9477;-77
2023/12/31 08:18:30;;;;;;;;;0.25;0.00;;;;;;;;5059105;28;9476;-74
2023/12/31 08:20:58;;;;;;;;;1.00;0.00;;;;;;;;5063683;28;9556;-76
2023/12/31 08:23:25;;;;;;;;;0.00;0.00;;;;;;;;5050737;28;9512;-76
2023/12/31 08:25:52;;;;;;;;;0.00;0.00;;;;;;;;5069050;28;9529;-76
2023/12/31 08:28:21;;;;;;;;;1.25;0.00;;;;;;;;5070874;28;9616;-76
2023/12/31 08:30:49;;;;;;;;;0.00;0.00;;;;;;;;5068471;28;9569;-75
2023/12/31 08:33:16;;;;;;;;;0.00;0.00;;;;;;;;5069189;28;9528;-77
2023/12/31 08:35:44;;;;;;;;;2.00;0.00;;;;;;;;5057725;28;9633;-75
2023/12/31 08:38:11;;;;;;;;;2.00;0.00;;;;;;;;5072817;28;9626;-72
2023/12/31 08:40:38;;;;;;;;;0.00;0.00;;;;;;;;5069455;28;9549;-72
2023/12/31 08:43:05;;;;;;;;;1.00;0.00;;;;;;;;5067575;28;9570;-75
2023/12/31 08:45:35;;;;;;;;;0.00;0.00;;;;;;;;5070895;28;9683;-76
2023/12/31 08:48:03;;;;;;;;;0.75;0.00;;;;;;;;5069578;28;9723;-74
2023/12/31 08:50:33;;;;;;;;;0.00;0.00;;;;;;;;5061332;28;9687;-74
2023/12/31 08:53:03;;;;;;;;;0.00;0.00;;;;;;;;5068991;28;9622;-74
2023/12/31 08:55:33;;;;;;;;;0.50;0.00;;;;;;;;5069303;28;9499;-75
2023/12/31 08:58:03;;;;;;;;;0.00;0.00;;;;;;;;5068101;28;9492;-74
2023/12/31 09:00:33;;;;;;;;;0.25;0.00;;;;;;;;5068144;28;9713;-75
2023/12/31 09:03:05;;;;;;;;;0.00;0.00;;;;;;;;5067581;28;9541;-75
2023/12/31 09:05:32;;;;;;;;;0.00;0.00;;;;;;;;5058061;28;10463;-74
2023/12/31 09:08:02;;;;;;;;;0.00;0.00;;;;;;;;5067054;28;9546;-74
2023/12/31 09:10:30;;;;;;;;;1.50;0.00;;;;;;;;5068266;28;9607;-75
2023/12/31 09:12:57;;;;;;;;;0.00;0.00;;;;;;;;5066285;28;9542;-76
2023/12/31 09:15:25;;;;;;;;;0.25;0.00;;;;;;;;5068531;28;9467;-75
2023/12/31 09:17:52;;;;;;;;;0.00;0.00;;;;;;;;5067141;28;9620;-76
2023/12/31 09:20:20;;;;;;;;;0.00;0.00;;;;;;;;5068209;28;9550;-75
2023/12/31 09:22:52;;;;;;;;;1.00;0.00;;;;;;;;5067836;28;9529;-75
2023/12/31 09:25:19;;;;;;;;;0.00;0.00;;;;;;;;5067025;28;9692;-74
2023/12/31 09:27:47;;;;;;;;;0.75;0.00;;;;;;;;5055334;28;9659;-75
2023/12/31 09:30:14;;;;;;;;;0.00;0.00;;;;;;;;5066147;28;9626;-75
2023/12/31 09:32:42;;;;;;;;;1.00;0.00;;;;;;;;5068378;28;9487;-75
2023/12/31 09:35:10;;;;;;;;;0.00;0.00;;;;;;;;5068168;28;9541;-75
2023/12/31 09:37:38;;;;;;;;;0.00;0.00;;;;;;;;5068239;28;9474;-75
2023/12/31 09:40:06;;;;;;;;;0.00;0.00;;;;;;;;5068022;28;10394;-76
2023/12/31 09:42:42;;;;;;;;;0.00;0.00;;;;;;;;5068282;28;9457;-76
2023/12/31 09:45:10;;;;;;;;;0.00;0.00;;;;;;;;5069152;28;9477;-74
2023/12/31 09:47:37;;;;;;;;;0.00;0.00;;;;;;;;5070366;28;9606;-75
2023/12/31 09:50:07;;;;;;;;;2.00;0.50;;;;;;;;5070307;28;9577;-74
2023/12/31 09:52:35;;;;;;;;;1.00;1.00;;;;;;;;5068340;28;9472;-74
2023/12/31 09:55:05;;;;;;;;;4.00;0.00;;;;;;;;5060301;28;9536;-75
2023/12/31 09:57:33;;;;;;;;;0.00;0.00;;;;;;;;5055117;28;9640;-77
2023/12/31 10:00:04;;;;;;;;;2.00;0.75;;;;;;;;5063744;28;9736;-75
2023/12/31 10:02:34;;;;;;;;;0.50;0.50;;;;;;;;5058072;28;9446;-75
2023/12/31 10:05:02;;;;;;;;;1.00;1.00;;;;;;;;5057542;28;9562;-75
2023/12/31 10:07:31;;;;;;;;;0.00;0.00;;;;;;;;5061479;28;9569;-77
2023/12/31 10:10:08;;;;;;;;;2.00;0.00;;;;;;;;5055440;28;10189;-74
2023/12/31 10:12:36;;;;;;;;;2.00;1.00;;;;;;;;5066493;28;9473;-75
2023/12/31 10:15:03;;;;;;;;;1.00;1.00;;;;;;;;5068631;28;9465;-74
2023/12/31 10:17:32;;;;;;;;;3.00;2.00;;;;;;;;5067282;28;9349;-75
2023/12/31 10:20:01;;;;;;;;;2.00;0.00;;;;;;;;5067205;28;10204;-76
2023/12/31 10:22:31;;;;;;;;;4.67;0.67;;;;;;;;5068401;28;9237;-74
2023/12/31 10:25:14;;;;;;;;;1.33;0.00;;;;;;;;5071181;28;9341;-76
2023/12/31 10:27:43;;;;;;;;;1.00;1.00;;;;;;;;5058538;28;9315;-75
2023/12/31 10:30:11;;;;;;;;;0.00;0.00;;;;;;;;5070621;28;9428;-74
2023/12/31 10:32:38;;;;;;;;;1.00;1.00;;;;;;;;5061319;28;9308;-75
2023/12/31 10:35:07;;;;;;;;;0.33;0.33;;;;;;;;5068843;28;9363;-74
2023/12/31 10:37:35;;;;;;;;;4.00;1.00;;;;;;;;5072630;28;9345;-75
2023/12/31 10:40:18;;;;;;;;;4.33;1.67;;;;;;;;5071639;28;9702;-75
2023/12/31 10:42:49;;;;;;;;;1.00;1.00;;;;;;;;5068751;28;9370;-75
2023/12/31 10:45:19;;;;;;;;;5.00;1.00;;;;;;;;5068561;28;9347;-76
2023/12/31 10:47:46;;;;;;;;;1.00;1.00;;;;;;;;5069111;28;9189;-74
2023/12/31 10:50:18;;;;;;;;;0.67;0.67;;;;;;;;5067387;28;9186;-80
2023/12/31 10:52:46;;;;;;;;;3.00;1.00;;;;;;;;5062575;28;9925;-75
2023/12/31 10:55:16;;;;;;;;;2.67;0.00;;;;;;;;5071459;28;9432;-74
2023/12/31 10:57:44;;;;;;;;;7.00;2.00;;;;;;;;5065414;28;9007;-73
2023/12/31 11:00:13;;;;;;;;;2.00;1.00;;;;;;;;5067863;28;9096;-75
2023/12/31 11:02:40;;;;;;;;;0.00;0.00;;;;;;;;5068155;28;8996;-75
2023/12/31 11:05:10;;;;;;;;;0.67;0.67;;;;;;;;5070520;28;9076;-76
2023/12/31 11:07:38;;;;;;;;;2.00;1.67;;;;;;;;5069831;28;9195;-76
2023/12/31 11:10:05;;;;;;;;;4.00;1.00;;;;;;;;5072058;28;9195;-76
2023/12/31 11:12:35;;;;;;;;;1.33;1.33;;;;;;;;5072846;28;9237;-75
2023/12/31 11:15:05;;;;;;;;;1.67;1.00;;;;;;;;5072749;28;9412;-75
2023/12/31 11:18:00;;;;;;;;;5.00;2.00;;;;;;;;5070188;28;9326;-74
2023/12/31 11:21:01;;;;;;;;;1.67;1.00;;;;;;;;5070447;28;9317;-74
2023/12/31 11:23:39;;;;;;;;;2.67;1.00;;;;;;;;5064345;28;9263;-75
2023/12/31 11:26:07;;;;;;;;;2.33;1.00;;;;;;;;5063520;28;9312;-76
2023/12/31 11:28:36;;;;;;;;;6.00;1.00;;;;;;;;5075723;28;9169;-80
2023/12/31 11:31:10;;;;;;;;;2.00;2.00;;;;;;;;5074216;28;8999;-77
2023/12/31 11:33:40;;;;;;;;;2.25;0.75;;;;;;;;5073986;28;9205;-74
2023/12/31 11:36:11;;;;;;;;;6.00;2.00;;;;;;;;5076693;28;8881;-76
2023/12/31 11:39:02;;;;;;;;;2.75;1.25;;;;;;;;5076041;28;9065;-73
2023/12/31 11:41:33;;;;;;;;;1.50;1.50;;;;;;;;5069270;28;8873;-77
2023/12/31 11:44:05;;;;;;;;;2.00;0.00;;;;;;;;5063879;28;8857;-76
2023/12/31 11:46:33;;;;;;;;;0.33;0.33;;;;;;;;5060944;28;8875;-75
2023/12/31 11:49:01;;;;;;;;;1.00;1.00;;;;;;;;5064532;28;8968;-75
2023/12/31 11:51:31;;;;;;;;;3.25;1.00;;;;;;;;5070712;28;8896;-73
2023/12/31 11:54:00;;;;;;;;;2.00;2.00;;;;;;;;5071138;28;9001;-74
2023/12/31 11:56:29;;;;;;;;;7.50;2.00;;;;;;;;5068339;28;8896;-76
2023/12/31 11:58:59;;;;;;;;;4.25;2.00;;;;;;;;5069661;28;8974;-74
2023/12/31 12:01:28;;;;;;;;;1.75;1.75;;;;;;;;5069109;28;8811;-74
2023/12/31 12:03:58;;;;;;;;;3.25;0.50;;;;;;;;5071209;28;8826;-74
2023/12/31 12:06:25;;;;;;;;;4.00;1.00;;;;;;;;5055446;28;8869;-75
2023/12/31 12:08:52;;;;;;;;;2.25;1.00;;;;;;;;5069697;28;8969;-74
2023/12/31 12:11:20;;;;;;;;;2.25;2.25;;;;;;;;5069654;28;8961;-74
2023/12/31 12:13:47;;;;;;;;;4.00;2.50;;;;;;;;5071048;28;8855;-74
2023/12/31 12:16:14;;;;;;;;;3.00;1.75;;;;;;;;5071225;28;8961;-74
2023/12/31 12:18:45;;;;;;;;;2.25;2.25;;;;;;;;5072241;28;8870;-75
2023/12/31 12:21:13;;;;;;;;;5.00;3.00;;;;;;;;5071471;28;8870;-76
2023/12/31 12:23:40;;;;;;;;;1.00;1.00;;;;;;;;5071502;28;8948;-74
2023/12/31 12:26:07;;;;;;;;;2.75;2.00;;;;;;;;5072537;28;8854;-75
2023/12/31 12:28:35;;;;;;;;;2.00;2.00;;;;;;;;5070007;28;8880;-74
2023/12/31 12:31:03;;;;;;;;;2.00;2.00;;;;;;;;5069252;28;8807;-75
2023/12/31 12:33:33;;;;;;;;;1.00;1.00;;;;;;;;5067988;28;8949;-76
2023/12/31 12:36:03;;;;;;;;;2.00;0.75;;;;;;;;5069420;28;8965;-76
2023/12/31 12:38:33;;;;;;;;;1.50;1.25;;;;;;;;5067884;28;8868;-76
2023/12/31 12:41:01;;;;;;;;;3.00;1.00;;;;;;;;5068000;28;8874;-75
2023/12/31 12:43:31;;;;;;;;;3.33;2.00;;;;;;;;5055291;28;9015;-76
2023/12/31 12:46:10;;;;;;;;;6.33;1.00;;;;;;;;5067768;28;8990;-76
2023/12/31 12:48:41;;;;;;;;;3.00;2.00;;;;;;;;5068783;28;9085;-74
2023/12/31 12:51:10;;;;;;;;;2.50;1.25;;;;;;;;5069102;28;8931;-77
2023/12/31 12:53:37;;;;;;;;;3.25;1.00;;;;;;;;5068809;28;8940;-76
2023/12/31 12:56:05;;;;;;;;;5.50;1.00;;;;;;;;5067245;28;8869;-76
2023/12/31 12:58:32;;;;;;;;;0.67;0.67;;;;;;;;5057567;28;8873;-75
2023/12/31 13:00:59;;;;;;;;;1.00;1.00;;;;;;;;5066821;28;8803;-76
2023/12/31 13:03:27;;;;;;;;;3.50;2.75;;;;;;;;5061595;28;8980;-75
2023/12/31 13:05:58;;;;;;;;;4.00;1.00;;;;;;;;5051626;28;8849;-76
2023/12/31 13:08:27;;;;;;;;;2.00;0.00;;;;;;;;5069033;28;8859;-76
2023/12/31 13:10:55;;;;;;;;;2.75;1.00;;;;;;;;5068066;28;8855;-76
2023/12/31 13:13:22;;;;;;;;;2.75;1.50;;;;;;;;5069664;28;8847;-75
2023/12/31 13:15:50;;;;;;;;;0.00;0.00;;;;;;;;5069657;28;8897;-85
2023/12/31 13:18:17;;;;;;;;;1.50;1.00;;;;;;;;5071693;28;8862;-79
2023/12/31 13:20:45;;;;;;;;;1.25;1.00;;;;;;;;5072183;28;8997;-81
2023/12/31 13:23:13;;;;;;;;;2.50;1.00;;;;;;;;5073578;28;8877;-79
2023/12/31 13:25:41;;;;;;;;;1.25;1.00;;;;;;;;5074958;28;8875;-81
2023/12/31 13:28:09;;;;;;;;;3.00;1.00;;;;;;;;5072785;28;8851;-80
2023/12/31 13:30:36;;;;;;;;;0.50;0.50;;;;;;;;5061625;28;8783;-78
2023/12/31 13:33:04;;;;;;;;;0.00;0.00;;;;;;;;5063384;28;8852;-81
2023/12/31 13:35:31;;;;;;;;;1.25;0.00;;;;;;;;5060878;28;8869;-76
2023/12/31 13:37:59;;;;;;;;;0.75;0.00;;;;;;;;5068568;28;8869;-76
2023/12/31 13:40:26;;;;;;;;;1.00;1.00;;;;;;;;5070531;28;8857;-77
2023/12/31 13:42:56;;;;;;;;;2.25;0.75;;;;;;;;5071691;28;9612;-75
2023/12/31 13:45:26;;;;;;;;;1.25;1.00;;;;;;;;5070691;28;8843;-75
2023/12/31 13:47:55;;;;;;;;;0.25;0.25;;;;;;;;5065317;28;8861;-77
2023/12/31 13:50:22;;;;;;;;;0.75;0.00;;;;;;;;5072229;28;8843;-78
2023/12/31 13:52:50;;;;;;;;;0.50;0.00;;;;;;;;5062621;28;8847;-75
2023/12/31 13:55:17;;;;;;;;;0.25;0.25;;;;;;;;5068591;28;8843;-76
2023/12/31 13:57:44;;;;;;;;;2.00;0.00;;;;;;;;5067415;28;8862;-76
2023/12/31 14:00:14;;;;;;;;;0.67;0.67;;;;;;;;5067212;28;8847;-76
2023/12/31 14:02:42;;;;;;;;;0.00;0.00;;;;;;;;5055931;28;8924;-78
2023/12/31 14:05:09;;;;;;;;;0.00;0.00;;;;;;;;5053605;28;8873;-75
2023/12/31 14:07:37;;;;;;;;;0.00;0.00;;;;;;;;5063699;28;8946;-78
2023/12/31 14:10:05;;;;;;;;;0.00;0.00;;;;;;;;5069427;28;9613;-77
2023/12/31 14:12:32;;;;;;;;;2.50;1.00;;;;;;;;5069860;28;8952;-77
2023/12/31 14:15:04;;;;;;;;;0.00;0.00;;;;;;;;5070290;28;8875;-78
2023/12/31 14:17:35;;;;;;;;;0.00;0.00;;;;;;;;5068361;28;8871;-77
2023/12/31 14:20:04;;;;;;;;;0.00;0.00;;;;;;;;5068018;28;9408;-77
2023/12/31 14:22:31;;;;;;;;;0.33;0.33;;;;;;;;5067434;28;9214;-76
2023/12/31 14:24:58;;;;;;;;;0.33;0.00;;;;;;;;5067437;28;9087;-77
2023/12/31 14:27:26;;;;;;;;;1.33;0.00;;;;;;;;5067812;28;8946;-77
2023/12/31 14:29:53;;;;;;;;;0.00;0.00;;;;;;;;5067596;28;8950;-78
2023/12/31 14:32:20;;;;;;;;;0.67;0.67;;;;;;;;5066086;28;9105;-77
2023/12/31 14:34:49;;;;;;;;;0.67;0.00;;;;;;;;5067730;28;9029;-77
2023/12/31 14:37:16;;;;;;;;;2.00;0.67;;;;;;;;5067727;28;9293;-76
2023/12/31 14:39:43;;;;;;;;;0.00;0.00;;;;;;;;5067894;28;9127;-74
2023/12/31 14:42:11;;;;;;;;;0.00;0.00;;;;;;;;5067318;28;8961;-77
2023/12/31 14:44:38;;;;;;;;;1.00;1.00;;;;;;;;5067325;28;8976;-76
2023/12/31 14:47:05;;;;;;;;;2.00;0.00;;;;;;;;5065377;28;8954;-76
2023/12/31 14:49:33;;;;;;;;;0.00;0.00;;;;;;;;5065557;28;9800;-76
2023/12/31 14:52:02;;;;;;;;;0.00;0.00;;;;;;;;5066251;28;9212;-79
2023/12/31 14:54:31;;;;;;;;;1.00;0.00;;;;;;;;5063242;28;9320;-77
2023/12/31 14:56:58;;;;;;;;;0.67;0.00;;;;;;;;5067435;28;9018;-76
2023/12/31 14:59:26;;;;;;;;;0.00;0.00;;;;;;;;5067395;28;9075;-76
2023/12/31 15:01:53;;;;;;;;;0.00;0.00;;;;;;;;5067676;28;8967;-77